createdAt,value
2019-02-23T00:00:53.237Z,1.13
2019-02-23T00:01:53.191Z,1.24
2019-02-23T00:02:53.183Z,1.22
2019-02-23T00:03:53.188Z,1.27
2019-02-23T00:04:53.204Z,1.28
2019-02-23T00:05:54.150Z,1.27
2019-02-23T00:06:54.145Z,1.22
2019-02-23T00:07:53.134Z,1.13
2019-02-23T00:08:54.120Z,1.16
2019-02-23T00:09:53.123Z,1.12
2019-02-23T00:10:54.127Z,1.13
2019-02-23T00:11:54.082Z,1.18
2019-02-23T00:12:53.088Z,1.13
2019-02-23T00:13:54.069Z,1.12
2019-02-23T00:14:53.055Z,1.12
2019-02-23T00:15:54.047Z,1.10
2019-02-23T00:16:53.072Z,1.06
2019-02-23T00:17:53.027Z,1.13
2019-02-23T00:18:54.015Z,1.12
2019-02-23T00:19:53.008Z,1.04
2019-02-23T00:20:53.002Z,1.07
2019-02-23T00:21:54.013Z,1.04
2019-02-23T00:22:52.977Z,1.09
2019-02-23T00:23:53.963Z,1.10
2019-02-23T00:24:53.947Z,1.14
2019-02-23T00:25:52.937Z,1.06
2019-02-23T00:26:52.957Z,1.03
2019-02-23T00:27:53.921Z,1.10
2019-02-23T00:28:53.903Z,1.06
2019-02-23T00:29:53.893Z,1.04
2019-02-23T00:30:53.881Z,0.96
2019-02-23T00:31:53.882Z,1.13
2019-02-23T00:32:52.861Z,1.03
2019-02-23T00:33:52.889Z,1.00
2019-02-23T00:34:53.838Z,0.99
2019-02-23T00:35:52.851Z,0.96
2019-02-23T00:36:52.819Z,0.88
2019-02-23T00:37:52.815Z,0.89
2019-02-23T00:38:53.828Z,0.85
2019-02-23T00:39:53.789Z,0.91
2019-02-23T00:40:53.775Z,0.85
2019-02-23T00:41:53.767Z,0.84
2019-02-23T00:42:53.763Z,0.82
2019-02-23T00:43:53.757Z,0.84
2019-02-23T00:44:53.742Z,0.81
2019-02-23T00:45:53.719Z,0.84
2019-02-23T00:46:52.712Z,0.85
2019-02-23T00:47:52.709Z,0.77
2019-02-23T00:48:53.695Z,0.81
2019-02-23T00:49:53.691Z,0.84
2019-02-23T00:50:53.681Z,0.81
2019-02-23T00:51:52.659Z,0.84
2019-02-23T00:52:52.658Z,0.85
2019-02-23T00:53:53.631Z,0.84
2019-02-23T00:54:52.629Z,0.78
2019-02-23T00:55:52.623Z,0.81
2019-02-23T00:56:52.611Z,0.82
2019-02-23T00:57:53.603Z,0.71
2019-02-23T00:58:53.583Z,0.78
2019-02-23T00:59:53.572Z,0.68
2019-02-23T01:00:52.563Z,0.82
2019-02-23T01:01:53.365Z,0.77
2019-02-23T01:02:52.549Z,0.71
2019-02-23T01:03:52.527Z,0.70
2019-02-23T01:04:52.514Z,0.66
2019-02-23T01:05:53.512Z,0.68
2019-02-23T01:06:53.502Z,0.66
2019-02-23T01:07:52.493Z,0.61
2019-02-23T01:08:56.309Z,0.67
2019-02-23T01:09:52.514Z,0.66
2019-02-23T01:10:58.205Z,0.63
2019-02-23T01:11:53.443Z,0.67
2019-02-23T01:12:53.432Z,0.63
2019-02-23T01:13:52.438Z,0.56
2019-02-23T01:14:53.420Z,0.63
2019-02-23T01:15:53.396Z,0.58
2019-02-23T01:16:53.384Z,0.56
2019-02-23T01:17:52.375Z,0.63
2019-02-23T01:18:56.306Z,0.52
2019-02-23T01:19:53.354Z,0.66
2019-02-23T01:20:52.343Z,0.58
2019-02-23T01:21:52.335Z,0.52
2019-02-23T01:22:52.320Z,0.64
2019-02-23T01:23:53.312Z,0.66
2019-02-23T01:24:53.333Z,0.59
2019-02-23T01:25:53.287Z,0.63
2019-02-23T01:26:53.285Z,0.52
2019-02-23T01:27:53.274Z,0.44
2019-02-23T01:28:53.262Z,0.64
2019-02-23T01:29:53.247Z,0.58
2019-02-23T01:30:54.800Z,0.49
2019-02-23T01:31:53.232Z,0.56
2019-02-23T01:32:53.222Z,0.49
2019-02-23T01:33:53.229Z,0.52
2019-02-23T01:34:53.196Z,0.47
2019-02-23T01:35:52.185Z,0.40
2019-02-23T01:36:53.205Z,0.49
2019-02-23T01:37:52.174Z,0.44
2019-02-23T01:38:52.158Z,0.45
2019-02-23T01:39:53.146Z,0.42
2019-02-23T01:40:53.133Z,0.51
2019-02-23T01:41:52.128Z,0.48
2019-02-23T01:42:53.107Z,0.45
2019-02-23T01:43:53.125Z,0.44
2019-02-23T01:44:53.088Z,0.44
2019-02-23T01:45:53.077Z,0.47
2019-02-23T01:46:53.072Z,0.40
2019-02-23T01:47:52.059Z,0.37
2019-02-23T01:48:53.043Z,0.37
2019-02-23T01:49:58.955Z,0.33
2019-02-23T01:50:53.026Z,0.36
2019-02-23T01:51:53.011Z,0.31
2019-02-23T01:52:53.004Z,0.30
2019-02-23T01:53:52.992Z,0.34
2019-02-23T01:54:53.794Z,0.34
2019-02-23T01:55:52.968Z,0.33
2019-02-23T01:56:52.962Z,0.30
2019-02-23T01:57:52.946Z,0.24
2019-02-23T01:58:52.939Z,0.26
2019-02-23T01:59:51.935Z,0.16
2019-02-23T02:00:52.908Z,0.23
2019-02-23T02:01:52.907Z,0.15
2019-02-23T02:02:53.019Z,0.15
2019-02-23T02:03:52.881Z,0.12
2019-02-23T02:04:52.870Z,0.18
2019-02-23T02:05:52.853Z,0.15
2019-02-23T02:06:52.860Z,0.09
2019-02-23T02:07:52.836Z,0.11
2019-02-23T02:08:51.870Z,0.15
2019-02-23T02:09:51.827Z,0.11
2019-02-23T02:10:52.806Z,0.15
2019-02-23T02:11:51.793Z,0.06
2019-02-23T02:12:51.786Z,0.09
2019-02-23T02:13:52.780Z,0.16
2019-02-23T02:14:52.776Z,0.13
2019-02-23T02:15:51.756Z,0.09
2019-02-23T02:16:52.744Z,0.12
2019-02-23T02:17:52.732Z,0.05
2019-02-23T02:18:52.719Z,0.05
2019-02-23T02:19:51.718Z,0.08
2019-02-23T02:20:52.697Z,0.06
2019-02-23T02:21:52.689Z,0.00
2019-02-23T02:22:51.675Z,-0.02
2019-02-23T02:23:52.668Z,0.12
2019-02-23T02:24:54.342Z,0.06
2019-02-23T02:25:52.645Z,0.15
2019-02-23T02:26:51.631Z,0.09
2019-02-23T02:27:52.622Z,-0.02
2019-02-23T02:28:51.608Z,0.06
2019-02-23T02:29:51.626Z,0.06
2019-02-23T02:30:52.616Z,0.05
2019-02-23T02:31:51.576Z,0.05
2019-02-23T02:32:52.571Z,0.16
2019-02-23T02:33:52.556Z,0.09
2019-02-23T02:34:52.573Z,0.15
2019-02-23T02:35:52.530Z,0.00
2019-02-23T02:36:52.536Z,-0.05
2019-02-23T02:37:52.508Z,-0.17
2019-02-23T02:38:52.509Z,-0.12
2019-02-23T02:39:52.513Z,-0.15
2019-02-23T02:40:54.418Z,-0.23
2019-02-23T02:41:52.473Z,-0.12
2019-02-23T02:42:52.460Z,-0.10
2019-02-23T02:43:52.447Z,-0.06
2019-02-23T02:44:53.270Z,-0.09
2019-02-23T02:45:52.447Z,-0.07
2019-02-23T02:46:51.416Z,-0.09
2019-02-23T02:47:52.276Z,-0.02
2019-02-23T02:48:52.392Z,0.00
2019-02-23T02:49:51.384Z,0.11
2019-02-23T02:50:52.381Z,0.06
2019-02-23T02:51:52.395Z,0.05
2019-02-23T02:52:51.346Z,-0.03
2019-02-23T02:53:52.356Z,0.11
2019-02-23T02:54:52.330Z,0.19
2019-02-23T02:55:51.590Z,0.19
2019-02-23T02:56:52.333Z,0.19
2019-02-23T02:57:52.294Z,0.20
2019-02-23T02:58:51.284Z,0.19
2019-02-23T02:59:54.770Z,0.27
2019-02-23T03:00:51.268Z,0.31
2019-02-23T03:01:51.290Z,0.27
2019-02-23T03:02:51.248Z,0.19
2019-02-23T03:03:52.234Z,0.27
2019-02-23T03:04:52.220Z,0.23
2019-02-23T03:05:54.766Z,0.27
2019-02-23T03:06:52.197Z,0.13
2019-02-23T03:07:52.185Z,0.12
2019-02-23T03:08:51.180Z,-0.02
2019-02-23T03:09:52.167Z,0.11
2019-02-23T03:10:52.156Z,0.05
2019-02-23T03:11:51.171Z,0.06
2019-02-23T03:12:52.130Z,0.09
2019-02-23T03:13:51.326Z,0.09
2019-02-23T03:14:52.108Z,0.09
2019-02-23T03:15:51.110Z,0.18
2019-02-23T03:16:51.090Z,0.13
2019-02-23T03:17:52.087Z,0.13
2019-02-23T03:18:52.082Z,0.11
2019-02-23T03:19:51.069Z,0.01
2019-02-23T03:20:54.762Z,0.05
2019-02-23T03:21:52.041Z,0.08
2019-02-23T03:22:51.053Z,0.09
2019-02-23T03:23:52.020Z,0.05
2019-02-23T03:24:52.002Z,0.05
2019-02-23T03:25:52.042Z,0.05
2019-02-23T03:26:51.980Z,0.06
2019-02-23T03:27:50.974Z,-0.07
2019-02-23T03:28:50.956Z,-0.18
2019-02-23T03:29:50.955Z,-0.18
2019-02-23T03:30:50.945Z,-0.23
2019-02-23T03:31:50.968Z,-0.24
2019-02-23T03:32:51.917Z,-0.38
2019-02-23T03:33:51.908Z,-0.31
2019-02-23T03:34:51.894Z,-0.23
2019-02-23T03:35:51.886Z,-0.23
2019-02-23T03:36:54.753Z,-0.28
2019-02-23T03:37:51.865Z,-0.24
2019-02-23T03:38:51.854Z,-0.35
2019-02-23T03:39:51.842Z,-0.36
2019-02-23T03:40:51.841Z,-0.35
2019-02-23T03:41:51.820Z,-0.39
2019-02-23T03:42:51.839Z,-0.38
2019-02-23T03:43:50.814Z,-0.38
2019-02-23T03:44:50.791Z,-0.44
2019-02-23T03:45:50.778Z,-0.56
2019-02-23T03:46:50.773Z,-0.56
2019-02-23T03:47:50.758Z,-0.48
2019-02-23T03:48:50.749Z,-0.56
2019-02-23T03:49:51.732Z,-0.53
2019-02-23T03:50:50.731Z,-0.51
2019-02-23T03:51:50.760Z,-0.46
2019-02-23T03:52:50.700Z,-0.42
2019-02-23T03:54:50.682Z,-0.39
2019-02-23T03:55:51.682Z,-0.44
2019-02-23T03:56:51.680Z,-0.46
2019-02-23T03:57:51.655Z,-0.49
2019-02-23T03:58:51.637Z,-0.49
2019-02-23T03:59:51.626Z,-0.54
2019-02-23T04:00:50.620Z,-0.56
2019-02-23T04:01:50.608Z,-0.56
2019-02-23T04:02:51.642Z,-0.54
2019-02-23T04:03:50.590Z,-0.59
2019-02-23T04:04:51.577Z,-0.66
2019-02-23T04:05:51.563Z,-0.57
2019-02-23T04:06:50.562Z,-0.60
2019-02-23T04:07:51.544Z,-0.63
2019-02-23T04:08:51.564Z,-0.60
2019-02-23T04:09:51.522Z,-0.49
2019-02-23T04:10:51.531Z,-0.56
2019-02-23T04:11:51.506Z,-0.59
2019-02-23T04:12:51.485Z,-0.57
2019-02-23T04:13:50.483Z,-0.60
2019-02-23T04:14:51.493Z,-0.63
2019-02-23T04:15:51.458Z,-0.67
2019-02-23T04:16:50.444Z,-0.63
2019-02-23T04:17:50.441Z,-0.67
2019-02-23T04:18:53.233Z,-0.62
2019-02-23T04:19:50.423Z,-0.60
2019-02-23T04:21:01.272Z,-0.81
2019-02-23T04:21:51.386Z,-0.75
2019-02-23T04:22:50.385Z,-0.75
2019-02-23T04:23:51.410Z,-0.75
2019-02-23T04:24:51.358Z,-0.81
2019-02-23T04:25:51.352Z,-0.87
2019-02-23T04:26:51.339Z,-0.85
2019-02-23T04:27:52.230Z,-0.82
2019-02-23T04:28:51.312Z,-1.00
2019-02-23T04:29:50.336Z,-1.03
2019-02-23T04:30:51.288Z,-1.00
2019-02-23T04:31:50.282Z,-1.12
2019-02-23T04:32:50.272Z,-1.04
2019-02-23T04:33:51.260Z,-1.06
2019-02-23T04:34:51.282Z,-1.09
2019-02-23T04:35:51.240Z,-1.21
2019-02-23T04:36:50.232Z,-1.18
2019-02-23T04:37:50.233Z,-1.22
2019-02-23T04:38:51.202Z,-1.32
2019-02-23T04:39:50.215Z,-1.36
2019-02-23T04:40:51.183Z,-1.32
2019-02-23T04:41:50.178Z,-1.33
2019-02-23T04:42:53.746Z,-1.30
2019-02-23T04:43:51.148Z,-1.35
2019-02-23T04:44:51.164Z,-1.32
2019-02-23T04:45:51.124Z,-1.25
2019-02-23T04:46:51.116Z,-1.27
2019-02-23T04:47:50.122Z,-1.32
2019-02-23T04:48:51.105Z,-1.27
2019-02-23T04:49:50.089Z,-1.19
2019-02-23T04:50:51.078Z,-1.21
2019-02-23T04:51:50.068Z,-1.19
2019-02-23T04:52:51.069Z,-1.19
2019-02-23T04:53:51.038Z,-1.11
2019-02-23T04:54:51.035Z,-1.12
2019-02-23T04:55:50.053Z,-1.07
2019-02-23T04:56:53.733Z,-1.07
2019-02-23T04:57:51.009Z,-1.09
2019-02-23T04:58:49.991Z,-1.09
2019-02-23T04:59:50.979Z,-1.19
2019-02-23T05:00:49.966Z,-1.06
2019-02-23T05:01:49.969Z,-1.11
2019-02-23T05:02:50.951Z,-1.19
2019-02-23T05:03:50.933Z,-1.14
2019-02-23T05:04:50.926Z,-1.06
2019-02-23T05:05:50.909Z,-1.15
2019-02-23T05:06:50.969Z,-1.09
2019-02-23T05:07:50.891Z,-1.21
2019-02-23T05:08:49.878Z,-1.15
2019-02-23T05:09:49.879Z,-1.18
2019-02-23T05:10:50.860Z,-1.21
2019-02-23T05:11:51.622Z,-1.21
2019-02-23T05:12:50.873Z,-1.07
2019-02-23T05:13:50.821Z,-1.11
2019-02-23T05:14:49.827Z,-1.11
2019-02-23T05:15:49.808Z,-1.07
2019-02-23T05:16:50.811Z,-1.06
2019-02-23T05:17:50.808Z,-1.07
2019-02-23T05:18:50.769Z,-1.01
2019-02-23T05:19:50.773Z,-1.04
2019-02-23T05:20:49.755Z,-1.00
2019-02-23T05:21:50.740Z,-0.96
2019-02-23T05:22:50.767Z,-0.97
2019-02-23T05:23:50.730Z,-0.99
2019-02-23T05:24:53.359Z,-0.94
2019-02-23T05:25:53.215Z,-0.99
2019-02-23T05:26:49.687Z,-1.01
2019-02-23T05:27:52.215Z,-1.03
2019-02-23T05:28:52.207Z,-1.03
2019-02-23T05:29:49.660Z,-1.06
2019-02-23T05:30:50.647Z,-1.07
2019-02-23T05:31:50.632Z,-1.14
2019-02-23T05:32:50.620Z,-1.12
2019-02-23T05:33:50.639Z,-1.18
2019-02-23T05:34:50.601Z,-1.07
2019-02-23T05:35:49.595Z,-1.12
2019-02-23T05:36:49.587Z,-1.07
2019-02-23T05:37:50.570Z,-1.01
2019-02-23T05:38:50.596Z,-1.04
2019-02-23T05:39:49.546Z,-1.00
2019-02-23T05:40:50.537Z,-1.03
2019-02-23T05:41:50.562Z,-1.03
2019-02-23T05:43:00.356Z,-1.09
2019-02-23T05:43:50.532Z,-1.09
2019-02-23T05:44:49.498Z,-1.03
2019-02-23T05:45:49.479Z,-1.00
2019-02-23T05:46:50.471Z,-1.00
2019-02-23T05:47:49.464Z,-0.94
2019-02-23T05:48:50.499Z,-0.96
2019-02-23T05:49:49.446Z,-1.03
2019-02-23T05:50:50.428Z,-1.03
2019-02-23T05:51:50.413Z,-0.91
2019-02-23T05:52:50.407Z,-0.93
2019-02-23T05:53:50.396Z,-0.89
2019-02-23T05:54:49.413Z,-0.96
2019-02-23T05:55:50.370Z,-0.91
2019-02-23T05:56:49.363Z,-0.85
2019-02-23T05:57:49.354Z,-0.85
2019-02-23T05:58:50.342Z,-0.81
2019-02-23T05:59:50.343Z,-0.91
2019-02-23T06:00:50.318Z,-0.91
2019-02-23T06:01:49.308Z,-0.84
2019-02-23T06:02:53.197Z,-0.87
2019-02-23T06:03:52.200Z,-0.91
2019-02-23T06:04:50.287Z,-0.89
2019-02-23T06:05:50.284Z,-0.89
2019-02-23T06:06:50.259Z,-0.87
2019-02-23T06:08:49.230Z,-0.77
2019-02-23T06:09:50.248Z,-0.70
2019-02-23T06:10:51.697Z,-0.72
2019-02-23T06:11:50.205Z,-0.72
2019-02-23T06:12:50.193Z,-0.69
2019-02-23T06:13:49.218Z,-0.72
2019-02-23T06:14:50.196Z,-0.67
2019-02-23T06:15:50.178Z,-0.74
2019-02-23T06:16:50.152Z,-0.74
2019-02-23T06:17:50.150Z,-0.64
2019-02-23T06:18:50.283Z,-0.70
2019-02-23T06:19:50.115Z,-0.80
2019-02-23T06:20:50.106Z,-0.78
2019-02-23T06:21:53.587Z,-0.77
2019-02-23T06:22:50.080Z,-0.78
2019-02-23T06:23:50.080Z,-0.78
2019-02-23T06:24:50.097Z,-0.64
2019-02-23T06:25:49.051Z,-0.64
2019-02-23T06:26:50.037Z,-0.70
2019-02-23T06:27:50.036Z,-0.66
2019-02-23T06:28:50.019Z,-0.62
2019-02-23T06:29:49.006Z,-0.60
2019-02-23T06:30:51.559Z,-0.60
2019-02-23T06:31:48.988Z,-0.67
2019-02-23T06:32:49.972Z,-0.64
2019-02-23T06:33:49.965Z,-0.78
2019-02-23T06:34:50.269Z,-0.77
2019-02-23T06:35:48.945Z,-0.75
2019-02-23T06:36:49.931Z,-0.78
2019-02-23T06:37:49.913Z,-0.78
2019-02-23T06:38:48.908Z,-0.81
2019-02-23T06:39:48.934Z,-0.72
2019-02-23T06:40:48.891Z,-0.69
2019-02-23T06:41:49.876Z,-0.64
2019-02-23T06:42:49.683Z,-0.63
2019-02-23T06:43:48.861Z,-0.60
2019-02-23T06:44:48.975Z,-0.57
2019-02-23T06:45:49.830Z,-0.53
2019-02-23T06:46:49.826Z,-0.56
2019-02-23T06:47:49.810Z,-0.66
2019-02-23T06:48:48.807Z,-0.60
2019-02-23T06:49:48.791Z,-0.51
2019-02-23T06:50:48.805Z,-0.54
2019-02-23T06:51:48.836Z,-0.54
2019-02-23T06:52:49.763Z,-0.45
2019-02-23T06:53:48.758Z,-0.51
2019-02-23T06:54:49.743Z,-0.48
2019-02-23T06:55:51.683Z,-0.46
2019-02-23T06:57:48.701Z,-0.46
2019-02-23T06:58:49.691Z,-0.54
2019-02-23T06:59:49.688Z,-0.59
2019-02-23T07:00:48.704Z,-0.64
2019-02-23T07:01:48.671Z,-0.74
2019-02-23T07:03:48.639Z,-0.67
2019-02-23T07:04:49.628Z,-0.62
2019-02-23T07:06:48.603Z,-0.57
2019-02-23T07:07:49.696Z,-0.57
2019-02-23T07:08:49.588Z,-0.57
2019-02-23T07:09:48.575Z,-0.54
2019-02-23T07:10:48.563Z,-0.48
2019-02-23T07:11:48.581Z,-0.48
2019-02-23T07:12:49.543Z,-0.51
2019-02-23T07:14:48.515Z,-0.41
2019-02-23T07:15:48.509Z,-0.39
2019-02-23T07:16:49.528Z,-0.44
2019-02-23T07:17:51.172Z,-0.38
2019-02-23T07:18:49.487Z,-0.35
2019-02-23T07:19:49.463Z,-0.31
2019-02-23T07:20:49.469Z,-0.30
2019-02-23T07:21:48.448Z,-0.31
2019-02-23T07:22:49.467Z,-0.23
2019-02-23T07:23:48.423Z,-0.23
2019-02-23T07:24:48.409Z,-0.18
2019-02-23T07:26:48.391Z,-0.15
2019-02-23T07:27:49.425Z,-0.24
2019-02-23T07:28:49.371Z,-0.18
2019-02-23T07:29:49.352Z,-0.18
2019-02-23T07:30:49.387Z,-0.21
2019-02-23T07:31:49.341Z,-0.21
2019-02-23T07:32:48.325Z,-0.06
2019-02-23T07:33:48.351Z,-0.17
2019-02-23T07:34:48.308Z,-0.20
2019-02-23T07:35:51.161Z,-0.18
2019-02-23T07:36:51.164Z,-0.17
2019-02-23T07:37:48.281Z,-0.15
2019-02-23T07:38:49.267Z,-0.12
2019-02-23T07:39:49.255Z,-0.23
2019-02-23T07:40:49.236Z,-0.18
2019-02-23T07:41:48.238Z,-0.13
2019-02-23T07:42:48.265Z,-0.17
2019-02-23T07:43:49.218Z,-0.09
2019-02-23T07:44:49.200Z,-0.13
2019-02-23T07:45:49.207Z,-0.07
2019-02-23T07:46:49.179Z,-0.06
2019-02-23T07:47:49.170Z,-0.06
2019-02-23T07:48:48.158Z,-0.06
2019-02-23T07:49:49.144Z,-0.05
2019-02-23T07:50:49.137Z,-0.03
2019-02-23T07:51:49.124Z,-0.05
2019-02-23T07:52:49.113Z,-0.10
2019-02-23T07:53:49.109Z,-0.17
2019-02-23T07:54:49.090Z,-0.09
2019-02-23T07:55:49.089Z,-0.09
2019-02-23T07:56:49.070Z,-0.10
2019-02-23T07:57:49.651Z,-0.06
2019-02-23T07:58:49.051Z,-0.09
2019-02-23T07:59:48.043Z,-0.20
2019-02-23T08:00:52.651Z,-0.21
2019-02-23T08:01:48.024Z,-0.10
2019-02-23T08:02:49.008Z,-0.15
2019-02-23T08:03:48.996Z,-0.12
2019-02-23T08:04:49.653Z,-0.12
2019-02-23T08:05:48.976Z,-0.02
2019-02-23T08:06:47.965Z,0.05
2019-02-23T08:07:47.961Z,0.08
2019-02-23T08:08:48.949Z,0.11
2019-02-23T08:09:49.060Z,0.08
2019-02-23T08:10:47.920Z,0.18
2019-02-23T08:11:48.903Z,0.23
2019-02-23T08:12:48.895Z,0.23
2019-02-23T08:14:48.108Z,0.29
2019-02-23T08:15:47.867Z,0.29
2019-02-23T08:16:47.855Z,0.33
2019-02-23T08:17:47.854Z,0.18
2019-02-23T08:18:48.835Z,0.15
2019-02-23T08:19:47.823Z,0.08
2019-02-23T08:20:48.849Z,0.16
2019-02-23T08:22:47.940Z,0.12
2019-02-23T08:23:48.776Z,0.12
2019-02-23T08:24:51.739Z,0.19
2019-02-23T08:25:48.765Z,0.15
2019-02-23T08:27:47.733Z,0.13
2019-02-23T08:28:48.726Z,0.19
2019-02-23T08:30:47.701Z,0.23
2019-02-23T08:31:48.695Z,0.34
2019-02-23T08:32:47.685Z,0.37
2019-02-23T08:33:47.677Z,0.44
2019-02-23T08:34:49.181Z,0.48
2019-02-23T08:35:47.719Z,0.45
2019-02-23T08:36:48.637Z,0.55
2019-02-23T08:37:48.625Z,0.48
2019-02-23T08:38:48.623Z,0.52
2019-02-23T08:39:48.639Z,0.52
2019-02-23T08:40:47.597Z,0.56
2019-02-23T08:41:48.585Z,0.47
2019-02-23T08:42:48.585Z,0.66
2019-02-23T08:43:48.566Z,0.56
2019-02-23T08:44:48.589Z,0.67
2019-02-23T08:45:48.556Z,0.66
2019-02-23T08:46:48.528Z,0.67
2019-02-23T08:47:47.527Z,0.68
2019-02-23T08:48:47.509Z,0.67
2019-02-23T08:49:49.027Z,0.71
2019-02-23T08:50:47.523Z,0.73
2019-02-23T08:51:48.480Z,0.86
2019-02-23T08:52:50.347Z,0.78
2019-02-23T08:53:48.462Z,0.85
2019-02-23T08:54:48.444Z,0.84
2019-02-23T08:55:47.467Z,0.81
2019-02-23T08:56:47.427Z,0.88
2019-02-23T08:57:48.415Z,1.02
2019-02-23T08:58:48.405Z,0.96
2019-02-23T08:59:48.395Z,1.02
2019-02-23T09:00:50.133Z,1.02
2019-02-23T09:01:48.374Z,1.06
2019-02-23T09:02:48.375Z,1.04
2019-02-23T09:03:51.133Z,1.07
2019-02-23T09:04:48.348Z,0.95
2019-02-23T09:05:47.333Z,1.02
2019-02-23T09:06:48.322Z,0.99
2019-02-23T09:07:47.311Z,0.94
2019-02-23T09:08:48.293Z,0.88
2019-02-23T09:09:48.322Z,0.82
2019-02-23T09:10:48.274Z,0.77
2019-02-23T09:11:48.273Z,0.85
2019-02-23T09:12:48.260Z,0.88
2019-02-23T09:13:47.249Z,0.89
2019-02-23T09:14:47.272Z,0.96
2019-02-23T09:15:48.219Z,1.09
2019-02-23T09:16:48.237Z,1.07
2019-02-23T09:17:48.201Z,1.18
2019-02-23T09:18:48.182Z,1.22
2019-02-23T09:19:48.212Z,1.30
2019-02-23T09:20:47.163Z,1.31
2019-02-23T09:21:48.153Z,1.45
2019-02-23T09:22:47.140Z,1.43
2019-02-23T09:23:48.151Z,1.48
2019-02-23T09:24:50.631Z,1.56
2019-02-23T09:25:48.115Z,1.50
2019-02-23T09:26:50.629Z,1.49
2019-02-23T09:27:48.091Z,1.53
2019-02-23T09:28:47.087Z,1.53
2019-02-23T09:29:48.070Z,1.53
2019-02-23T09:30:48.109Z,1.52
2019-02-23T09:31:48.074Z,1.64
2019-02-23T09:32:48.032Z,1.68
2019-02-23T09:33:48.030Z,1.84
2019-02-23T09:34:48.013Z,1.79
2019-02-23T09:35:48.012Z,1.85
2019-02-23T09:36:48.022Z,1.75
2019-02-23T09:37:48.000Z,1.78
2019-02-23T09:38:47.982Z,1.84
2019-02-23T09:39:47.957Z,1.78
2019-02-23T09:40:46.950Z,1.89
2019-02-23T09:41:46.942Z,1.89
2019-02-23T09:42:47.981Z,1.92
2019-02-23T09:43:47.920Z,2.04
2019-02-23T09:44:47.907Z,2.04
2019-02-23T09:45:47.891Z,2.10
2019-02-23T09:46:47.888Z,2.12
2019-02-23T09:47:47.866Z,2.08
2019-02-23T09:48:46.900Z,2.12
2019-02-23T09:49:47.844Z,2.14
2019-02-23T09:50:47.837Z,2.14
2019-02-23T09:51:46.852Z,2.21
2019-02-23T09:52:47.817Z,2.19
2019-02-23T09:53:46.808Z,2.21
2019-02-23T09:54:46.784Z,2.18
2019-02-23T09:55:47.785Z,2.26
2019-02-23T09:56:47.776Z,2.25
2019-02-23T09:57:47.772Z,2.26
2019-02-23T09:58:47.761Z,2.32
2019-02-23T09:59:47.744Z,2.41
2019-02-23T10:00:47.724Z,2.34
2019-02-23T10:01:48.619Z,2.43
2019-02-23T10:02:46.732Z,2.41
2019-02-23T10:03:46.719Z,2.41
2019-02-23T10:04:47.710Z,2.47
2019-02-23T10:05:46.679Z,2.39
2019-02-23T10:06:46.668Z,2.55
2019-02-23T10:07:47.658Z,2.46
2019-02-23T10:08:47.667Z,2.54
2019-02-23T10:09:46.634Z,2.64
2019-02-23T10:10:47.612Z,2.62
2019-02-23T10:11:46.605Z,2.72
2019-02-23T10:12:47.593Z,2.76
2019-02-23T10:13:46.588Z,2.83
2019-02-23T10:14:47.596Z,2.77
2019-02-23T10:15:47.558Z,2.83
2019-02-23T10:16:47.548Z,2.79
2019-02-23T10:17:49.106Z,2.75
2019-02-23T10:18:46.530Z,2.83
2019-02-23T10:19:47.511Z,2.85
2019-02-23T10:20:46.538Z,2.94
2019-02-23T10:21:46.498Z,2.88
2019-02-23T10:22:47.481Z,2.95
2019-02-23T10:23:46.478Z,2.98
2019-02-23T10:24:47.496Z,2.87
2019-02-23T10:25:47.450Z,2.90
2019-02-23T10:26:46.454Z,2.97
2019-02-23T10:27:47.427Z,2.97
2019-02-23T10:28:47.412Z,3.05
2019-02-23T10:29:47.408Z,3.09
2019-02-23T10:30:47.411Z,3.09
2019-02-23T10:31:48.156Z,3.06
2019-02-23T10:32:47.372Z,3.21
2019-02-23T10:33:47.883Z,3.18
2019-02-23T10:34:47.387Z,3.16
2019-02-23T10:35:47.344Z,3.16
2019-02-23T10:36:47.351Z,3.29
2019-02-23T10:37:47.316Z,3.31
2019-02-23T10:38:46.312Z,3.41
2019-02-23T10:39:47.292Z,3.41
2019-02-23T10:40:47.322Z,3.58
2019-02-23T10:41:47.320Z,3.66
2019-02-23T10:42:47.269Z,3.64
2019-02-23T10:43:46.256Z,3.68
2019-02-23T10:44:47.241Z,3.73
2019-02-23T10:45:47.230Z,3.68
2019-02-23T10:46:47.216Z,3.64
2019-02-23T10:47:46.234Z,3.58
2019-02-23T10:48:47.204Z,3.73
2019-02-23T10:49:47.189Z,3.74
2019-02-23T10:50:46.207Z,3.73
2019-02-23T10:51:47.170Z,3.76
2019-02-23T10:52:46.154Z,3.81
2019-02-23T10:53:47.138Z,3.84
2019-02-23T10:54:47.191Z,3.81
2019-02-23T10:55:47.152Z,3.91
2019-02-23T10:56:47.114Z,3.91
2019-02-23T10:57:47.116Z,3.91
2019-02-23T10:58:47.090Z,3.91
2019-02-23T10:59:47.075Z,4.03
2019-02-23T11:00:47.592Z,4.02
2019-02-23T11:01:47.594Z,4.09
2019-02-23T11:02:47.039Z,4.13
2019-02-23T11:03:47.033Z,4.18
2019-02-23T11:04:46.032Z,4.27
2019-02-23T11:05:46.012Z,4.24
2019-02-23T11:06:46.004Z,4.34
2019-02-23T11:07:46.032Z,4.36
2019-02-23T11:08:45.978Z,4.31
2019-02-23T11:11:54.858Z,4.39
2019-02-23T11:12:55.662Z,4.43
2019-02-23T11:13:58.390Z,4.30
2019-02-23T11:14:55.640Z,4.45
2019-02-23T11:15:55.626Z,4.42
2019-02-23T11:16:55.646Z,4.40
2019-02-23T11:17:55.607Z,4.57
2019-02-23T11:18:55.593Z,4.46
2019-02-23T11:19:55.583Z,4.48
2019-02-23T11:20:55.600Z,4.60
2019-02-23T11:21:55.562Z,4.56
2019-02-23T11:22:55.558Z,4.58
2019-02-23T11:23:55.539Z,4.60
2019-02-23T11:24:55.531Z,4.60
2019-02-23T11:25:55.565Z,4.60
2019-02-23T11:26:55.509Z,4.63
2019-02-23T11:27:55.502Z,4.56
2019-02-23T11:29:54.482Z,4.60
2019-02-23T11:30:55.474Z,4.60
2019-02-23T11:31:55.488Z,4.60
2019-02-23T11:32:55.450Z,4.63
2019-02-23T11:33:55.452Z,4.68
2019-02-23T11:34:55.422Z,4.61
2019-02-23T11:35:55.404Z,4.66
2019-02-23T11:36:55.401Z,4.68
2019-02-23T11:37:56.368Z,4.71
2019-02-23T11:38:55.380Z,4.76
2019-02-23T11:39:55.379Z,4.84
2019-02-23T11:40:57.879Z,4.87
2019-02-23T11:41:55.349Z,4.86
2019-02-23T11:42:55.338Z,4.87
2019-02-23T11:43:55.356Z,4.95
2019-02-23T11:44:55.319Z,5.01
2019-02-23T11:45:55.302Z,4.97
2019-02-23T11:47:00.797Z,5.00
2019-02-23T11:47:55.290Z,5.01
2019-02-23T11:48:55.297Z,5.15
2019-02-23T11:49:55.259Z,5.15
2019-02-23T11:50:55.245Z,5.20
2019-02-23T11:51:55.251Z,5.22
2019-02-23T11:52:55.226Z,5.19
2019-02-23T11:53:55.489Z,5.23
2019-02-23T11:54:55.238Z,5.34
2019-02-23T11:55:55.197Z,5.33
2019-02-23T11:56:55.189Z,5.25
2019-02-23T11:57:55.180Z,5.36
2019-02-23T11:58:55.216Z,5.33
2019-02-23T11:59:55.155Z,5.37
2019-02-23T12:00:55.142Z,5.43
2019-02-23T12:01:55.143Z,5.46
2019-02-23T12:02:55.126Z,5.51
2019-02-23T12:03:55.111Z,5.62
2019-02-23T12:04:55.124Z,5.58
2019-02-23T12:05:55.094Z,5.64
2019-02-23T12:06:55.079Z,5.61
2019-02-23T12:07:55.069Z,5.70
2019-02-23T12:08:57.258Z,5.81
2019-02-23T12:09:55.047Z,5.77
2019-02-23T12:10:55.060Z,5.76
2019-02-23T12:11:55.020Z,5.81
2019-02-23T12:12:55.017Z,5.81
2019-02-23T12:13:55.044Z,5.91
2019-02-23T12:14:54.998Z,5.90
2019-02-23T12:15:55.002Z,5.95
2019-02-23T12:16:54.982Z,5.99
2019-02-23T12:17:54.961Z,6.05
2019-02-23T12:18:57.859Z,6.06
2019-02-23T12:19:55.448Z,6.09
2019-02-23T12:20:54.933Z,6.10
2019-02-23T12:21:54.984Z,6.12
2019-02-23T12:22:54.919Z,6.13
2019-02-23T12:24:05.470Z,6.09
2019-02-23T12:24:54.880Z,6.22
2019-02-23T12:25:54.939Z,6.20
2019-02-23T12:26:54.874Z,6.20
2019-02-23T12:28:53.835Z,6.25
2019-02-23T12:29:54.835Z,6.22
2019-02-23T12:30:54.826Z,6.29
2019-02-23T12:31:54.805Z,6.31
2019-02-23T12:32:54.795Z,6.22
2019-02-23T12:33:54.828Z,6.32
2019-02-23T12:34:54.783Z,6.36
2019-02-23T12:35:54.767Z,6.28
2019-02-23T12:36:57.660Z,6.35
2019-02-23T12:37:54.747Z,6.32
2019-02-23T12:38:54.731Z,6.31
2019-02-23T12:39:54.768Z,6.25
2019-02-23T12:40:54.709Z,6.29
2019-02-23T12:41:54.779Z,6.22
2019-02-23T12:42:54.697Z,6.26
2019-02-23T12:43:54.679Z,6.31
2019-02-23T12:44:54.689Z,6.41
2019-02-23T12:45:54.657Z,6.36
2019-02-23T12:46:54.651Z,6.39
2019-02-23T12:47:54.658Z,6.49
2019-02-23T12:48:54.621Z,6.49
2019-02-23T12:49:54.617Z,6.60
2019-02-23T12:50:54.607Z,6.59
2019-02-23T12:51:54.587Z,6.54
2019-02-23T12:52:55.345Z,6.57
2019-02-23T12:53:54.573Z,6.56
2019-02-23T12:54:54.591Z,6.53
2019-02-23T12:55:54.538Z,6.54
2019-02-23T12:56:54.538Z,6.57
2019-02-23T12:57:54.517Z,6.59
2019-02-23T12:58:54.509Z,6.65
2019-02-23T12:59:54.523Z,6.59
2019-02-23T13:00:54.487Z,6.53
2019-02-23T13:01:54.487Z,6.52
2019-02-23T13:02:54.467Z,6.60
2019-02-23T13:03:54.454Z,6.67
2019-02-23T13:04:54.451Z,6.64
2019-02-23T13:05:54.573Z,6.67
2019-02-23T13:06:54.421Z,6.60
2019-02-23T13:07:54.407Z,6.65
2019-02-23T13:08:54.397Z,6.64
2019-02-23T13:09:54.381Z,6.59
2019-02-23T13:10:54.377Z,6.60
2019-02-23T13:11:54.395Z,6.67
2019-02-23T13:12:54.354Z,6.70
2019-02-23T13:13:54.345Z,6.77
2019-02-23T13:14:54.328Z,6.71
2019-02-23T13:15:54.324Z,6.71
2019-02-23T13:16:54.313Z,6.71
2019-02-23T13:17:54.351Z,6.71
2019-02-23T13:18:54.289Z,6.72
2019-02-23T13:19:54.291Z,6.74
2019-02-23T13:20:54.301Z,6.67
2019-02-23T13:21:54.267Z,6.77
2019-02-23T13:22:54.247Z,6.74
2019-02-23T13:23:54.225Z,6.72